Time;durP1;ratioP1;P1;durP2;ratioP2;P2;SDS_P1;SDS_P2;PMS_P1;PMS_P2;Temp;Humidity;BMP_temperature;BMP_pressure;BME280_temperature;BME280_humidity;BME280_pressure;Samples;Min_cycle;Max_cycle;Signal;HPM_P1;HPM_P2
2022/08/07 00:00:49;;;;;;;2.85;0.50;;;14.50;91.10;;;;;;4987330;28;20033;-75
2022/08/07 00:03:20;;;;;;;0.95;0.50;;;14.50;91.20;;;;;;5003358;28;20045;-75
2022/08/07 00:05:53;;;;;;;2.03;0.60;;;14.50;91.30;;;;;;5002541;28;20029;-75
2022/08/07 00:08:23;;;;;;;1.27;0.50;;;14.50;91.40;;;;;;5018099;28;20421;-75
2022/08/07 00:10:51;;;;;;;1.10;0.57;;;14.50;91.40;;;;;;5020801;28;20033;-75
2022/08/07 00:13:22;;;;;;;1.58;0.73;;;14.50;91.50;;;;;;5020170;28;20056;-75
2022/08/07 00:15:50;;;;;;;2.13;0.60;;;14.50;91.50;;;;;;5017357;28;20041;-75
2022/08/07 00:18:20;;;;;;;1.27;0.70;;;14.50;91.70;;;;;;5020394;28;20025;-75
2022/08/07 00:20:48;;;;;;;1.65;0.88;;;14.50;91.70;;;;;;5004029;28;20025;-75
2022/08/07 00:23:15;;;;;;;1.30;0.57;;;14.50;92.00;;;;;;5005503;28;20029;-77
2022/08/07 00:25:41;;;;;;;1.35;0.60;;;14.40;92.00;;;;;;5002085;28;20043;-77
2022/08/07 00:28:08;;;;;;;1.75;0.88;;;14.40;92.10;;;;;;5004083;28;20029;-77
2022/08/07 00:30:34;;;;;;;2.22;0.68;;;14.40;92.20;;;;;;4985492;28;20033;-77
2022/08/07 00:33:00;;;;;;;1.42;0.63;;;14.40;92.30;;;;;;4987803;28;20761;-77
2022/08/07 00:35:30;;;;;;;1.35;0.80;;;14.30;92.30;;;;;;4987607;28;20036;-77
2022/08/07 00:38:05;;;;;;;1.90;0.80;;;14.30;92.50;;;;;;5020938;28;20480;-77
2022/08/07 00:40:33;;;;;;;1.90;0.98;;;14.30;92.60;;;;;;5015718;28;20030;-77
2022/08/07 00:43:00;;;;;;;2.95;0.85;;;14.30;92.70;;;;;;5003537;28;20044;-77
2022/08/07 00:45:27;;;;;;;1.30;0.77;;;14.30;92.70;;;;;;4985115;28;20022;-77
2022/08/07 00:47:53;;;;;;;1.40;0.65;;;14.30;92.80;;;;;;4987122;28;21461;-77
2022/08/07 00:50:20;;;;;;;2.05;0.80;;;14.30;92.90;;;;;;4992309;28;20033;-76
2022/08/07 00:52:46;;;;;;;1.92;0.98;;;14.30;93.00;;;;;;4956433;28;20033;-77
2022/08/07 00:55:12;;;;;;;2.47;1.08;;;14.20;93.10;;;;;;5001729;28;20071;-77
2022/08/07 00:57:39;;;;;;;2.38;1.30;;;14.20;93.20;;;;;;5002906;28;20022;-77
2022/08/07 01:00:07;;;;;;;2.22;1.00;;;14.20;93.30;;;;;;5003860;28;20036;-77
2022/08/07 01:02:34;;;;;;;1.65;1.15;;;14.20;93.30;;;;;;5005376;28;20025;-77
2022/08/07 01:05:05;;;;;;;2.08;1.13;;;14.20;93.40;;;;;;5020647;28;20021;-77
2022/08/07 01:07:32;;;;;;;1.92;1.15;;;14.20;93.50;;;;;;5003865;28;20949;-77
2022/08/07 01:09:58;;;;;;;1.80;0.80;;;14.10;93.60;;;;;;4985602;28;20488;-77
2022/08/07 01:12:25;;;;;;;2.40;1.05;;;14.10;93.60;;;;;;5019242;28;20048;-77
2022/08/07 01:14:56;;;;;;;2.50;1.00;;;14.10;93.70;;;;;;5000271;28;20393;-77
2022/08/07 01:17:25;;;;;;;1.75;0.90;;;14.10;93.80;;;;;;5019845;28;20497;-77
2022/08/07 01:20:07;;;;;;;2.40;1.05;;;14.10;93.80;;;;;;5004190;28;20025;-77
2022/08/07 01:22:39;;;;;;;1.88;1.30;;;14.10;94.00;;;;;;4986836;28;20479;-76
2022/08/07 01:25:11;;;;;;;2.58;1.20;;;14.00;94.30;;;;;;4999307;28;20044;-76
2022/08/07 01:27:40;;;;;;;2.90;1.23;;;14.00;94.00;;;;;;5004017;28;20419;-77
2022/08/07 01:30:10;;;;;;;3.45;1.50;;;14.00;94.00;;;;;;5004575;28;20044;-77
2022/08/07 01:32:57;;;;;;;2.33;1.13;;;14.00;94.10;;;;;;5021546;28;20048;-77
2022/08/07 01:35:39;;;;;;;2.97;1.17;;;14.00;94.10;;;;;;5021618;28;20021;-77
2022/08/07 01:38:09;;;;;;;1.70;1.02;;;13.90;94.30;;;;;;5004690;28;20029;-77
2022/08/07 01:40:40;;;;;;;2.25;1.20;;;13.90;94.30;;;;;;5002659;28;20049;-76
2022/08/07 01:43:08;;;;;;;2.25;1.42;;;13.90;94.30;;;;;;5001253;28;20040;-77
2022/08/07 01:45:35;;;;;;;2.80;1.65;;;13.90;94.40;;;;;;4982422;28;20045;-76
2022/08/07 01:48:05;;;;;;;2.50;1.40;;;13.90;94.50;;;;;;4985530;28;20045;-76
2022/08/07 01:50:42;;;;;;;1.98;1.30;;;13.80;94.60;;;;;;5006198;28;20026;-77
2022/08/07 01:53:10;;;;;;;2.63;1.60;;;13.80;94.60;;;;;;4990056;28;20503;-76
2022/08/07 01:55:48;;;;;;;2.03;1.13;;;13.80;94.60;;;;;;5001952;28;20354;-76
2022/08/07 01:58:23;;;;;;;2.72;1.92;;;13.80;94.80;;;;;;5004703;28;20393;-76
2022/08/07 02:01:01;;;;;;;2.10;1.02;;;13.80;94.80;;;;;;5017788;28;20044;-76
2022/08/07 02:03:36;;;;;;;1.90;1.40;;;13.80;94.80;;;;;;5002759;28;20042;-76
2022/08/07 02:06:17;;;;;;;2.72;1.50;;;13.80;94.90;;;;;;5000329;28;20025;-76
2022/08/07 02:09:04;;;;;;;2.17;1.38;;;13.80;94.90;;;;;;5004376;28;20676;-76
2022/08/07 02:11:44;;;;;;;2.75;1.50;;;13.80;95.00;;;;;;4988461;28;20540;-76
2022/08/07 02:14:14;;;;;;;3.38;1.50;;;13.70;95.00;;;;;;5003151;28;20033;-76
2022/08/07 02:16:42;;;;;;;2.85;1.80;;;13.70;95.10;;;;;;5001274;28;20020;-76
2022/08/07 02:19:11;;;;;;;2.67;1.58;;;13.80;95.20;;;;;;4987327;28;20989;-76
2022/08/07 02:21:40;;;;;;;2.58;1.10;;;13.70;95.20;;;;;;5020721;28;20018;-76
2022/08/07 02:24:08;;;;;;;2.13;1.45;;;13.70;95.20;;;;;;5003123;28;20030;-76
2022/08/07 02:26:36;;;;;;;1.77;1.10;;;13.70;95.20;;;;;;4985667;28;20037;-76
2022/08/07 02:29:09;;;;;;;2.10;1.63;;;13.70;95.20;;;;;;5005754;28;20492;-76
2022/08/07 02:31:37;;;;;;;2.10;1.55;;;13.70;95.30;;;;;;5000976;28;20029;-76
2022/08/07 02:34:04;;;;;;;4.63;1.90;;;13.70;95.30;;;;;;5002000;28;20044;-77
2022/08/07 02:36:38;;;;;;;3.15;1.67;;;13.70;95.30;;;;;;5018958;28;20045;-77
2022/08/07 02:39:12;;;;;;;1.90;1.40;;;13.70;95.30;;;;;;5005839;28;20030;-77
2022/08/07 02:41:39;;;;;;;2.67;1.95;;;13.70;95.30;;;;;;4981049;28;20026;-77
2022/08/07 02:44:06;;;;;;;3.00;2.05;;;13.70;95.50;;;;;;4992580;28;20511;-76
2022/08/07 02:46:36;;;;;;;2.83;1.38;;;13.70;95.50;;;;;;4989182;28;20358;-77
2022/08/07 02:49:04;;;;;;;2.20;1.30;;;13.70;95.50;;;;;;5005594;28;20036;-76
2022/08/07 02:51:33;;;;;;;3.00;1.73;;;13.70;95.50;;;;;;4987835;28;20041;-76
2022/08/07 02:54:03;;;;;;;3.78;1.80;;;13.70;95.60;;;;;;5005887;28;20022;-76
2022/08/07 02:56:32;;;;;;;3.38;1.90;;;13.60;95.60;;;;;;4990069;28;20025;-76
2022/08/07 02:59:02;;;;;;;3.63;2.00;;;13.60;95.70;;;;;;5024532;28;20029;-76
2022/08/07 03:01:32;;;;;;;2.90;2.10;;;13.60;96.00;;;;;;5006239;28;20041;-76
2022/08/07 03:04:00;;;;;;;2.60;1.77;;;13.60;95.70;;;;;;4973761;28;20477;-76
2022/08/07 03:06:29;;;;;;;3.08;2.40;;;13.60;95.80;;;;;;4991204;28;20038;-76
2022/08/07 03:08:56;;;;;;;3.00;2.15;;;13.60;95.90;;;;;;5023317;28;20038;-76
2022/08/07 03:11:23;;;;;;;2.97;2.47;;;13.60;95.90;;;;;;5025616;28;20029;-76
2022/08/07 03:13:50;;;;;;;3.20;2.22;;;13.60;96.00;;;;;;5008529;28;20037;-76
2022/08/07 03:16:20;;;;;;;3.72;2.20;;;13.50;96.10;;;;;;4974525;28;20503;-76
2022/08/07 03:18:47;;;;;;;4.03;2.50;;;13.50;96.10;;;;;;4974476;28;20060;-76
2022/08/07 03:21:16;;;;;;;2.13;1.50;;;13.50;96.20;;;;;;4994794;28;20033;-76
2022/08/07 03:23:44;;;;;;;4.05;2.67;;;13.50;96.20;;;;;;5006269;28;20033;-76
2022/08/07 03:26:22;;;;;;;4.28;2.55;;;13.40;96.30;;;;;;4989853;28;20152;-76
2022/08/07 03:28:57;;;;;;;2.67;2.03;;;13.40;96.40;;;;;;5009560;28;20022;-76
2022/08/07 03:31:38;;;;;;;2.92;1.98;;;13.40;96.40;;;;;;4989860;28;20037;-77
2022/08/07 03:34:08;;;;;;;3.88;2.75;;;13.40;96.50;;;;;;5008410;28;20029;-76
2022/08/07 03:36:39;;;;;;;5.80;2.75;;;13.30;96.60;;;;;;4988470;28;20034;-76
2022/08/07 03:39:13;;;;;;;3.40;2.45;;;13.30;96.70;;;;;;4986541;28;20033;-76
2022/08/07 03:41:46;;;;;;;5.47;2.92;;;13.30;96.80;;;;;;4990795;28;20048;-77
2022/08/07 03:44:22;;;;;;;3.13;2.15;;;13.30;96.90;;;;;;4973352;28;20030;-77
2022/08/07 03:46:54;;;;;;;4.82;2.55;;;13.30;96.80;;;;;;4990347;28;20098;-77
2022/08/07 03:49:22;;;;;;;3.70;2.75;;;13.20;96.90;;;;;;4970966;28;20041;-77
2022/08/07 03:51:52;;;;;;;3.38;2.65;;;13.20;97.00;;;;;;5023993;28;20025;-77
2022/08/07 03:54:27;;;;;;;4.03;2.95;;;13.20;97.00;;;;;;5002723;28;20029;-77
2022/08/07 03:56:56;;;;;;;3.10;2.33;;;13.20;97.10;;;;;;5004921;28;20527;-77
2022/08/07 03:59:33;;;;;;;4.20;2.72;;;13.20;97.20;;;;;;4992297;28;20041;-77
2022/08/07 04:02:02;;;;;;;3.05;1.92;;;13.20;97.20;;;;;;5005919;28;20029;-77
2022/08/07 04:04:29;;;;;;;4.28;2.83;;;13.10;97.20;;;;;;5003059;28;20034;-77
2022/08/07 04:07:06;;;;;;;4.25;3.05;;;13.10;97.30;;;;;;4990265;28;20056;-76
2022/08/07 04:09:34;;;;;;;4.85;3.20;;;13.10;97.40;;;;;;5023304;28;20504;-76
2022/08/07 04:12:04;;;;;;;5.03;3.10;;;13.10;97.50;;;;;;4974266;28;20060;-76
2022/08/07 04:14:37;;;;;;;3.72;2.60;;;13.10;97.60;;;;;;4990656;28;20061;-76
2022/08/07 04:17:05;;;;;;;3.50;2.72;;;13.10;97.70;;;;;;4992358;28;20033;-76
2022/08/07 04:19:33;;;;;;;4.57;3.65;;;13.10;97.70;;;;;;5024436;28;20636;-78
2022/08/07 04:22:00;;;;;;;3.85;2.40;;;13.10;97.70;;;;;;5025303;28;20518;-77
2022/08/07 04:24:31;;;;;;;4.30;3.22;;;13.10;97.80;;;;;;4993001;28;20033;-77
2022/08/07 04:27:01;;;;;;;4.75;2.83;;;13.10;97.80;;;;;;4995574;28;20052;-77
2022/08/07 04:29:28;;;;;;;4.75;3.20;;;13.10;97.90;;;;;;5011641;28;20030;-77
2022/08/07 04:31:56;;;;;;;4.88;3.30;;;13.10;97.90;;;;;;5032451;28;20048;-76
2022/08/07 04:34:23;;;;;;;5.20;3.35;;;13.10;98.00;;;;;;4989048;28;20389;-76
2022/08/07 04:36:52;;;;;;;4.68;3.13;;;13.20;98.00;;;;;;4971001;28;20040;-76
2022/08/07 04:39:20;;;;;;;5.15;3.25;;;13.20;98.00;;;;;;4986329;28;20045;-76
2022/08/07 04:41:49;;;;;;;5.70;3.80;;;13.30;98.10;;;;;;4970809;28;20045;-76
2022/08/07 04:44:16;;;;;;;6.13;4.18;;;13.30;98.10;;;;;;5003456;28;20045;-77
2022/08/07 04:47:15;;;;;;;7.75;3.95;;;13.40;98.20;;;;;;5003730;28;20034;-77
2022/08/07 04:50:07;;;;;;;4.40;3.50;;;13.50;98.30;;;;;;5005968;28;20428;-77
2022/08/07 04:53:14;;;;;;;5.63;4.20;;;13.50;98.30;;;;;;5021335;28;21026;-77
2022/08/07 04:55:58;;;;;;;5.82;3.90;;;13.50;98.30;;;;;;4902180;28;20043;-77
2022/08/07 04:58:40;;;;;;;5.47;4.10;;;13.60;98.40;;;;;;4911128;28;20044;-77
2022/08/07 05:01:29;;;;;;;7.03;4.70;;;13.70;98.50;;;;;;4925442;28;20072;-77
2022/08/07 05:04:24;;;;;;;5.57;3.85;;;13.80;98.50;;;;;;4921322;28;20030;-78
2022/08/07 05:07:12;;;;;;;5.20;3.92;;;13.90;98.60;;;;;;4934076;28;20034;-78
2022/08/07 05:09:53;;;;;;;4.65;3.60;;;14.00;98.60;;;;;;4979458;28;20033;-76
2022/08/07 05:12:33;;;;;;;7.30;3.90;;;14.10;98.50;;;;;;4978921;28;20401;-76
2022/08/07 05:15:17;;;;;;;12.20;9.02;;;14.30;98.50;;;;;;4975322;28;20027;-77
2022/08/07 05:18:18;;;;;;;8.75;6.63;;;14.40;98.50;;;;;;4960967;28;20033;-76
2022/08/07 05:20:55;;;;;;;10.18;8.35;;;14.50;98.40;;;;;;4969863;28;20041;-76
2022/08/07 05:23:58;;;;;;;8.02;6.03;;;14.50;98.40;;;;;;4963851;28;20034;-76
2022/08/07 05:26:30;;;;;;;7.28;5.63;;;14.60;98.40;;;;;;4946678;28;20106;-76
2022/08/07 05:29:06;;;;;;;6.15;4.90;;;14.70;98.30;;;;;;4988605;28;20030;-76
2022/08/07 05:31:39;;;;;;;8.02;4.65;;;14.80;98.20;;;;;;5002291;28;20036;-76
2022/08/07 05:34:18;;;;;;;11.20;6.30;;;14.90;98.20;;;;;;4944998;28;20080;-76
2022/08/07 05:36:54;;;;;;;6.75;4.53;;;15.00;98.20;;;;;;5002077;28;20049;-76
2022/08/07 05:39:30;;;;;;;7.68;4.90;;;15.10;98.10;;;;;;5002608;28;20013;-77
2022/08/07 05:42:12;;;;;;;6.72;5.15;;;15.30;98.00;;;;;;4973084;28;20046;-76
2022/08/07 05:44:45;;;;;;;5.25;4.43;;;15.50;97.90;;;;;;4980765;28;20049;-76
2022/08/07 05:47:18;;;;;;;6.35;5.20;;;15.70;97.80;;;;;;4985964;28;20025;-76
2022/08/07 05:49:50;;;;;;;6.53;4.55;;;15.90;97.60;;;;;;5003478;28;20045;-77
2022/08/07 05:52:25;;;;;;;5.57;4.18;;;16.10;97.50;;;;;;5002692;28;20048;-76
2022/08/07 05:54:52;;;;;;;4.32;3.92;;;16.30;97.40;;;;;;4999975;28;20029;-76
2022/08/07 05:57:23;;;;;;;6.03;3.83;;;16.50;97.20;;;;;;4985820;28;20054;-76
2022/08/07 05:59:55;;;;;;;5.25;4.35;;;16.70;97.00;;;;;;4972325;28;20034;-77
2022/08/07 06:02:28;;;;;;;4.85;4.32;;;16.80;96.80;;;;;;4993833;28;20028;-76
2022/08/07 06:05:02;;;;;;;4.95;4.00;;;17.00;96.60;;;;;;4999668;28;20065;-77
2022/08/07 06:07:36;;;;;;;5.05;3.92;;;17.10;96.50;;;;;;5003258;28;20488;-76
2022/08/07 06:10:30;;;;;;;6.72;3.30;;;17.40;96.40;;;;;;4991440;28;20022;-77
2022/08/07 06:13:00;;;;;;;5.40;4.10;;;17.60;96.10;;;;;;5021166;28;20054;-77
2022/08/07 06:15:28;;;;;;;5.13;3.60;;;17.70;95.90;;;;;;5001341;28;20026;-76
2022/08/07 06:17:58;;;;;;;4.50;3.90;;;17.90;95.70;;;;;;5024647;28;20029;-78
2022/08/07 06:20:35;;;;;;;6.65;3.63;;;18.00;95.50;;;;;;5027946;28;20044;-79
2022/08/07 06:23:05;;;;;;;4.97;4.07;;;18.20;95.30;;;;;;5009799;28;20068;-78
2022/08/07 06:25:39;;;;;;;3.42;2.67;;;18.30;95.10;;;;;;5005036;28;20029;-78
2022/08/07 06:28:09;;;;;;;4.45;3.47;;;18.50;95.00;;;;;;4974886;28;20041;-79
2022/08/07 06:30:39;;;;;;;4.28;2.70;;;18.70;94.90;;;;;;5009525;28;20039;-78
2022/08/07 06:33:12;;;;;;;3.55;3.20;;;19.00;94.60;;;;;;4977850;28;20412;-78
2022/08/07 06:35:39;;;;;;;3.50;2.20;;;19.40;94.40;;;;;;5008447;28;20052;-79
2022/08/07 06:38:07;;;;;;;6.03;3.92;;;19.80;94.00;;;;;;5011689;28;20396;-78
2022/08/07 06:40:44;;;;;;;4.25;2.72;;;20.10;93.00;;;;;;5027341;28;20377;-79
2022/08/07 06:43:12;;;;;;;5.00;3.40;;;20.40;92.60;;;;;;4993134;28;20036;-79
2022/08/07 06:45:50;;;;;;;3.47;2.58;;;20.50;92.00;;;;;;4993610;28;20046;-79
2022/08/07 06:48:17;;;;;;;3.28;2.67;;;20.50;91.70;;;;;;4993419;28;20504;-79
2022/08/07 06:50:47;;;;;;;4.45;3.35;;;20.50;91.60;;;;;;4993888;28;20056;-79
2022/08/07 06:53:16;;;;;;;5.05;3.05;;;20.60;91.70;;;;;;5010924;28;20404;-79
2022/08/07 06:55:45;;;;;;;6.90;3.97;;;20.70;91.10;;;;;;4991938;28;20033;-79
2022/08/07 06:58:15;;;;;;;3.25;2.63;;;21.00;90.60;;;;;;5007778;28;20037;-79
2022/08/07 07:00:51;;;;;;;4.25;2.28;;;21.30;90.20;;;;;;4978763;28;20041;-79
2022/08/07 07:03:18;;;;;;;2.50;2.28;;;21.50;89.40;;;;;;4978867;28;20510;-79
2022/08/07 07:05:45;;;;;;;4.60;2.60;;;21.60;88.90;;;;;;4995187;28;20076;-79
2022/08/07 07:08:12;;;;;;;3.30;2.72;;;21.60;88.40;;;;;;4995741;28;20049;-79
2022/08/07 07:10:41;;;;;;;2.92;2.08;;;21.60;88.10;;;;;;4993980;28;20034;-79
2022/08/07 07:13:18;;;;;;;3.08;1.50;;;21.60;88.20;;;;;;5027150;28;20057;-79
2022/08/07 07:15:52;;;;;;;3.35;1.77;;;21.60;88.10;;;;;;5025563;28;20041;-80
2022/08/07 07:18:58;;;;;;;3.30;1.90;;;21.70;88.00;;;;;;5007555;28;20487;-78
2022/08/07 07:21:37;;;;;;;2.22;1.75;;;21.70;87.80;;;;;;4994742;28;20389;-78
2022/08/07 07:24:07;;;;;;;2.50;1.63;;;21.80;87.40;;;;;;5003558;28;20384;-80
2022/08/07 07:26:36;;;;;;;3.80;2.10;;;21.90;87.20;;;;;;5003891;28;20052;-80
2022/08/07 07:29:20;;;;;;;2.72;1.67;;;22.00;86.50;;;;;;4979214;28;20030;-78
2022/08/07 07:31:50;;;;;;;2.70;1.50;;;22.10;86.10;;;;;;5006116;28;20485;-79
2022/08/07 07:34:27;;;;;;;5.68;4.07;;;22.20;85.70;;;;;;5004217;28;20030;-78
2022/08/07 07:37:07;;;;;;;3.42;2.78;;;22.20;85.20;;;;;;5009523;28;20033;-79
2022/08/07 07:39:41;;;;;;;14.90;12.27;;;22.20;84.90;;;;;;4996690;28;20038;-80
2022/08/07 07:42:14;;;;;;;7.20;5.00;;;22.30;84.00;;;;;;4960965;28;20473;-78
2022/08/07 07:44:50;;;;;;;5.63;3.65;;;22.40;83.70;;;;;;5024067;28;20033;-78
2022/08/07 07:47:20;;;;;;;2.92;2.05;;;22.40;83.60;;;;;;5009587;28;20041;-78
2022/08/07 07:49:59;;;;;;;3.70;2.17;;;22.50;83.50;;;;;;5025585;28;20963;-77
2022/08/07 07:52:35;;;;;;;3.03;1.58;;;22.50;82.70;;;;;;4990975;28;20037;-78
2022/08/07 07:55:10;;;;;;;3.05;1.67;;;22.60;82.40;;;;;;5006490;28;20025;-78
2022/08/07 07:57:39;;;;;;;2.92;1.30;;;22.70;81.90;;;;;;4988863;28;20362;-76
2022/08/07 08:00:29;;;;;;;4.60;3.45;;;22.80;80.90;;;;;;5005633;28;20298;-77
2022/08/07 08:03:10;;;;;;;4.53;3.10;;;22.90;80.90;;;;;;4994071;28;20050;-78
2022/08/07 08:05:52;;;;;;;3.15;1.20;;;23.10;80.00;;;;;;5020069;28;20017;-78
2022/08/07 08:08:23;;;;;;;4.57;2.95;;;23.10;79.70;;;;;;5022166;28;20041;-79
2022/08/07 08:11:13;;;;;;;3.10;1.63;;;23.20;79.10;;;;;;5023625;28;20021;-80
2022/08/07 08:13:42;;;;;;;2.25;1.00;;;23.30;79.00;;;;;;4992093;28;20041;-80
2022/08/07 08:16:15;;;;;;;1.90;1.02;;;23.40;78.40;;;;;;5005334;28;20048;-80
2022/08/07 08:18:44;;;;;;;2.50;0.88;;;23.40;77.50;;;;;;5006343;28;20025;-80
2022/08/07 08:27:03;;;;;;;2.88;0.73;;;23.60;76.10;;;;;;4987801;28;20068;-79
2022/08/07 08:29:39;;;;;;;1.07;0.50;;;23.70;74.50;;;;;;5004906;28;20098;-79
2022/08/07 08:32:08;;;;;;;1.48;0.60;;;23.70;74.30;;;;;;5005264;28;20357;-79
2022/08/07 08:34:37;;;;;;;2.45;0.60;;;23.70;73.90;;;;;;5020754;28;20408;-80
2022/08/07 08:37:08;;;;;;;1.40;0.50;;;23.70;73.90;;;;;;5003010;28;20105;-79
2022/08/07 08:39:41;;;;;;;1.58;0.60;;;23.90;73.70;;;;;;5023361;28;20029;-79
2022/08/07 08:42:48;;;;;;;1.70;0.70;;;24.10;73.40;;;;;;5005347;28;20037;-79
2022/08/07 08:45:36;;;;;;;1.45;0.80;;;24.20;72.60;;;;;;4981993;28;20041;-77
2022/08/07 08:48:26;;;;;;;1.10;0.70;;;24.30;71.70;;;;;;5002704;28;20029;-77
2022/08/07 08:51:45;;;;;;;1.23;0.50;;;24.40;71.30;;;;;;4988478;28;20033;-79
2022/08/07 08:54:24;;;;;;;1.63;0.50;;;24.50;71.40;;;;;;4924015;28;20047;-79
2022/08/07 08:57:00;;;;;;;1.10;0.60;;;24.70;71.20;;;;;;4939316;28;20055;-79
2022/08/07 08:59:39;;;;;;;1.20;0.60;;;24.90;69.20;;;;;;4968811;28;20044;-79
2022/08/07 09:02:39;;;;;;;2.40;1.10;;;25.00;69.10;;;;;;5006104;28;20488;-78
2022/08/07 09:05:36;;;;;;;1.42;0.55;;;25.00;68.10;;;;;;5006684;28;20029;-79
2022/08/07 09:08:31;;;;;;;1.00;0.52;;;25.10;68.60;;;;;;5024169;28;20025;-78
2022/08/07 09:11:12;;;;;;;1.75;0.70;;;25.30;68.40;;;;;;5023305;28;20018;-79
2022/08/07 09:14:13;;;;;;;1.60;0.77;;;25.40;68.10;;;;;;4988911;28;20049;-78
2022/08/07 09:17:04;;;;;;;1.08;0.50;;;25.70;67.70;;;;;;4988576;28;20073;-79
2022/08/07 09:20:03;;;;;;;1.13;0.50;;;25.90;67.60;;;;;;5005828;28;20021;-79
2022/08/07 09:22:52;;;;;;;1.42;0.60;;;26.00;66.40;;;;;;5004511;28;20485;-79
2022/08/07 09:26:01;;;;;;;0.85;0.60;;;26.20;66.40;;;;;;5003420;28;20056;-79
2022/08/07 09:28:37;;;;;;;1.13;0.50;;;26.30;65.80;;;;;;5003450;28;20033;-79
2022/08/07 09:31:31;;;;;;;1.70;0.80;;;26.50;65.00;;;;;;5004442;28;20033;-79
2022/08/07 09:34:24;;;;;;;1.30;0.70;;;26.50;64.50;;;;;;5004389;28;20025;-80
2022/08/07 09:37:15;;;;;;;1.85;0.75;;;26.60;63.60;;;;;;4989405;28;20065;-79
2022/08/07 09:40:04;;;;;;;2.70;0.63;;;26.70;63.40;;;;;;5005400;28;20021;-79
2022/08/07 09:42:55;;;;;;;1.60;0.50;;;26.80;63.30;;;;;;4971370;28;20033;-79
2022/08/07 09:45:43;;;;;;;0.93;0.60;;;27.10;63.00;;;;;;5000997;28;20463;-78
2022/08/07 09:49:15;;;;;;;2.03;0.80;;;27.20;62.20;;;;;;4987023;28;20392;-79
2022/08/07 09:52:19;;;;;;;1.48;0.60;;;27.30;61.50;;;;;;4910460;28;20412;-79
2022/08/07 09:55:13;;;;;;;1.38;0.70;;;27.40;61.90;;;;;;4900717;29;20426;-79
2022/08/07 09:58:02;;;;;;;1.42;0.60;;;27.30;61.30;;;;;;4944817;28;20482;-79
2022/08/07 10:01:04;;;;;;;1.08;0.60;;;27.50;61.40;;;;;;4960965;28;20474;-79
2022/08/07 10:04:00;;;;;;;1.17;0.60;;;27.60;61.10;;;;;;4943692;28;20494;-79
2022/08/07 10:07:04;;;;;;;1.98;0.90;;;27.50;60.50;;;;;;4883182;28;20431;-79
2022/08/07 10:11:25;;;;;;;2.55;0.80;;;27.40;60.50;;;;;;4872804;29;20045;-79
2022/08/07 10:14:11;;;;;;;1.73;0.73;;;27.20;60.40;;;;;;4790312;29;20062;-79
2022/08/07 10:16:56;;;;;;;0.75;0.50;;;27.20;60.00;;;;;;4762992;29;20063;-78
2022/08/07 10:19:52;;;;;;;1.10;0.70;;;27.30;60.10;;;;;;4853750;29;20037;-78
2022/08/07 10:22:58;;;;;;;0.88;0.50;;;27.60;59.80;;;;;;4897461;29;20052;-78
2022/08/07 10:25:33;;;;;;;1.27;0.50;;;27.80;58.80;;;;;;4899189;29;20073;-78
2022/08/07 10:28:25;;;;;;;1.60;0.52;;;27.80;58.00;;;;;;4892448;29;20048;-78
2022/08/07 10:31:19;;;;;;;1.33;0.60;;;27.60;58.00;;;;;;4921284;29;20058;-78
2022/08/07 10:34:21;;;;;;;1.10;0.68;;;27.40;58.20;;;;;;4926693;29;20031;-78
2022/08/07 10:37:25;;;;;;;4.03;1.80;;;27.60;58.00;;;;;;4924828;28;20516;-80
2022/08/07 10:40:29;;;;;;;2.58;0.68;;;27.60;56.00;;;;;;4918217;28;20038;-79
2022/08/07 10:43:20;;;;;;;1.45;0.50;;;27.70;56.70;;;;;;4998439;28;20388;-80
2022/08/07 10:46:12;;;;;;;3.05;0.65;;;28.20;56.20;;;;;;5000442;28;20376;-80
2022/08/07 10:49:08;;;;;;;2.22;0.80;;;28.70;55.90;;;;;;5020043;28;20028;-79
2022/08/07 10:51:56;;;;;;;1.92;0.85;;;29.30;55.90;;;;;;4983659;28;20030;-80
2022/08/07 10:54:43;;;;;;;1.08;0.60;;;29.40;54.70;;;;;;4982340;28;20041;-79
2022/08/07 10:57:38;;;;;;;2.17;0.70;;;29.20;54.70;;;;;;4983726;28;20026;-79
2022/08/07 11:00:14;;;;;;;2.13;0.80;;;29.60;55.00;;;;;;4988645;28;20022;-80
2022/08/07 11:03:02;;;;;;;0.90;0.57;;;30.20;54.40;;;;;;5006526;28;20037;-80
2022/08/07 11:05:48;;;;;;;1.95;0.70;;;30.60;53.40;;;;;;5003164;28;20345;-80
2022/08/07 11:08:31;;;;;;;1.65;0.77;;;30.60;52.50;;;;;;4999056;28;20034;-80
2022/08/07 11:11:16;;;;;;;1.55;0.80;;;30.00;52.20;;;;;;4988951;28;20044;-80
2022/08/07 11:14:06;;;;;;;0.80;0.50;;;29.40;52.30;;;;;;5005409;28;20373;-83
2022/08/07 11:16:42;;;;;;;;;;;28.90;53.30;;;;;;5006651;28;20064;-81
2022/08/07 11:19:54;;;;;;;1.60;0.60;;;28.60;54.00;;;;;;5011424;28;19917;-81
2022/08/07 11:23:17;;;;;;;1.85;0.73;;;29.10;54.20;;;;;;5010127;28;20490;-79
2022/08/07 11:26:19;;;;;;;1.75;0.85;;;30.00;52.10;;;;;;5020067;28;20496;-79
2022/08/07 11:29:12;;;;;;;1.30;0.75;;;30.90;51.70;;;;;;5006749;28;20477;-80
2022/08/07 11:31:48;;;;;;;1.10;0.80;;;31.90;50.50;;;;;;5022390;28;20026;-79
2022/08/07 11:34:45;;;;;;;1.42;1.00;;;32.20;48.90;;;;;;5008432;28;20026;-79
2022/08/07 11:37:45;;;;;;;1.77;1.00;;;32.60;48.50;;;;;;5006413;28;20024;-79
2022/08/07 11:40:58;;;;;;;1.48;0.80;;;33.10;46.90;;;;;;5005849;28;20040;-82
2022/08/07 11:44:27;;;;;;;1.17;0.70;;;32.80;46.10;;;;;;5000404;28;20041;-80
2022/08/07 11:47:34;;;;;;;1.40;0.70;;;33.00;47.10;;;;;;4903680;29;20048;-77
2022/08/07 11:50:36;;;;;;;1.80;0.88;;;33.40;45.30;;;;;;4905678;29;20031;-77
2022/08/07 11:53:20;;;;;;;2.13;0.80;;;33.90;45.50;;;;;;4989465;28;20048;-78
2022/08/07 11:56:18;;;;;;;1.48;0.65;;;34.50;44.30;;;;;;4968277;28;20037;-78
2022/08/07 11:59:15;;;;;;;1.33;0.70;;;35.20;43.70;;;;;;5020150;28;20033;-78
2022/08/07 12:02:31;;;;;;;1.50;0.50;;;35.60;43.80;;;;;;5004745;28;20377;-77
2022/08/07 12:05:35;;;;;;;1.25;0.63;;;35.60;42.20;;;;;;4939530;28;20055;-79
2022/08/07 12:08:29;;;;;;;1.50;0.70;;;34.60;42.40;;;;;;4944720;28;20039;-79
2022/08/07 12:11:14;;;;;;;1.17;0.70;;;33.70;43.00;;;;;;4928201;28;20411;-80
2022/08/07 12:13:51;;;;;;;0.82;0.60;;;32.90;43.30;;;;;;4931072;29;20054;-80
2022/08/07 12:27:21;;;;;;;1.98;0.85;;;31.80;45.20;;;;;;4637073;24;20057;-78
2022/08/07 12:30:01;;;;;;;1.58;0.60;;;32.90;44.80;;;;;;4708509;30;20497;-78
2022/08/07 12:32:59;;;;;;;1.50;0.82;;;34.10;44.10;;;;;;4709886;30;20025;-79
2022/08/07 12:35:30;;;;;;;1.75;0.80;;;35.40;43.20;;;;;;4691908;30;20036;-78
2022/08/07 12:37:59;;;;;;;1.98;0.75;;;36.50;42.10;;;;;;4691964;30;20041;-80
2022/08/07 12:40:29;;;;;;;0.90;0.60;;;37.10;40.40;;;;;;4693983;30;20044;-80
2022/08/07 12:42:59;;;;;;;1.38;0.73;;;37.50;39.90;;;;;;4695716;30;20044;-77
2022/08/07 12:46:00;;;;;;;1.83;1.45;;;38.00;39.20;;;;;;4691287;30;20028;-77
2022/08/07 12:48:44;;;;;;;1.67;1.08;;;37.90;38.60;;;;;;4693563;30;20037;-77
2022/08/07 12:51:20;;;;;;;2.15;0.73;;;37.90;37.90;;;;;;4694625;30;20381;-76
2022/08/07 12:53:58;;;;;;;1.85;0.80;;;37.90;38.30;;;;;;4680940;30;20378;-77
2022/08/07 12:56:34;;;;;;;1.00;0.70;;;38.30;38.20;;;;;;4706498;30;20623;-76
2022/08/07 12:59:11;;;;;;;2.15;0.95;;;39.00;38.10;;;;;;4708041;30;20033;-76
2022/08/07 13:01:43;;;;;;;0.93;0.70;;;39.80;36.80;;;;;;4693985;30;20041;-77
2022/08/07 13:04:28;;;;;;;1.58;0.80;;;40.10;36.50;;;;;;4706536;30;20409;-77
2022/08/07 13:07:13;;;;;;;1.40;0.80;;;40.80;36.60;;;;;;4708917;30;20016;-76
2022/08/07 13:10:07;;;;;;;1.00;0.77;;;41.10;35.30;;;;;;4707579;30;20037;-76
2022/08/07 13:12:52;;;;;;;2.25;0.70;;;40.70;34.50;;;;;;4693536;30;20033;-76
2022/08/07 13:15:57;;;;;;;1.45;0.60;;;39.90;35.30;;;;;;4691523;30;20025;-76
2022/08/07 13:18:29;;;;;;;0.88;0.52;;;39.70;35.50;;;;;;4710633;30;20940;-76
2022/08/07 13:21:20;;;;;;;1.23;0.70;;;38.90;35.80;;;;;;4675654;30;20143;-76
2022/08/07 13:24:10;;;;;;;1.00;0.65;;;38.80;36.50;;;;;;4679543;30;20032;-76
2022/08/07 13:26:50;;;;;;;1.73;0.70;;;38.10;36.50;;;;;;4693235;30;20072;-76
2022/08/07 13:29:27;;;;;;;1.60;0.60;;;37.00;36.70;;;;;;4677792;30;20021;-76
2022/08/07 13:32:03;;;;;;;1.75;0.60;;;35.90;37.70;;;;;;4694327;30;20032;-76
2022/08/07 13:34:42;;;;;;;1.27;0.60;;;35.10;38.10;;;;;;4690180;30;20050;-76
2022/08/07 13:37:30;;;;;;;0.82;0.50;;;35.20;37.80;;;;;;4706906;30;20450;-76
2022/08/07 13:40:30;;;;;;;1.08;0.50;;;35.00;37.80;;;;;;4692040;30;20049;-75
2022/08/07 13:43:03;;;;;;;1.73;0.60;;;34.00;38.70;;;;;;4692326;30;20059;-76
2022/08/07 13:45:34;;;;;;;0.98;0.57;;;33.20;39.30;;;;;;4691551;30;20033;-76
2022/08/07 13:48:04;;;;;;;0.95;0.47;;;32.50;40.10;;;;;;4692828;30;20048;-75
2022/08/07 13:50:36;;;;;;;1.20;0.70;;;31.90;41.10;;;;;;4692818;30;20029;-76
2022/08/07 13:53:09;;;;;;;2.90;0.60;;;31.50;41.00;;;;;;4692315;30;20041;-75
2022/08/07 13:55:41;;;;;;;1.27;0.60;;;31.60;41.50;;;;;;4690074;30;20048;-76
2022/08/07 14:01:11;;;;;;;0.98;0.50;;;35.10;39.60;;;;;;4702853;30;20052;-78
2022/08/07 14:03:40;;;;;;;1.58;0.70;;;36.80;38.10;;;;;;4676746;30;20053;-76
2022/08/07 14:06:11;;;;;;;1.35;0.60;;;37.90;37.20;;;;;;4705160;30;20381;-76
2022/08/07 14:08:51;;;;;;;1.10;0.50;;;38.30;36.50;;;;;;4693159;30;20033;-76